sensor_id;sensor_type;location;lat;lon;timestamp;P1;durP1;ratioP1;P2;durP2;ratioP2
31760;SDS011;18335;51.486;7.562;2023-06-26T00:02:14;13.02;;;6.93;;
31760;SDS011;18335;51.486;7.562;2023-06-26T00:04:41;11.63;;;7.03;;
31760;SDS011;18335;51.486;7.562;2023-06-26T00:07:08;11.25;;;7.28;;
31760;SDS011;18335;51.486;7.562;2023-06-26T00:09:36;12.30;;;7.18;;
31760;SDS011;18335;51.486;7.562;2023-06-26T00:12:03;10.95;;;7.18;;
31760;SDS011;18335;51.486;7.562;2023-06-26T00:14:31;14.23;;;6.82;;
31760;SDS011;18335;51.486;7.562;2023-06-26T00:16:58;13.30;;;7.38;;
31760;SDS011;18335;51.486;7.562;2023-06-26T00:19:25;11.68;;;6.07;;
31760;SDS011;18335;51.486;7.562;2023-06-26T00:21:52;13.98;;;7.55;;
31760;SDS011;18335;51.486;7.562;2023-06-26T00:24:18;12.10;;;6.43;;
31760;SDS011;18335;51.486;7.562;2023-06-26T00:26:46;13.38;;;6.68;;
31760;SDS011;18335;51.486;7.562;2023-06-26T00:29:14;11.18;;;6.40;;
31760;SDS011;18335;51.486;7.562;2023-06-26T00:31:42;13.18;;;6.68;;
31760;SDS011;18335;51.486;7.562;2023-06-26T00:34:08;11.07;;;6.65;;
31760;SDS011;18335;51.486;7.562;2023-06-26T00:36:35;13.02;;;6.32;;
31760;SDS011;18335;51.486;7.562;2023-06-26T00:39:03;11.35;;;6.97;;
31760;SDS011;18335;51.486;7.562;2023-06-26T00:41:30;11.05;;;6.40;;
31760;SDS011;18335;51.486;7.562;2023-06-26T00:43:57;9.88;;;5.97;;
31760;SDS011;18335;51.486;7.562;2023-06-26T00:46:26;12.65;;;5.90;;
31760;SDS011;18335;51.486;7.562;2023-06-26T00:48:54;11.40;;;7.03;;
31760;SDS011;18335;51.486;7.562;2023-06-26T00:51:21;9.15;;;5.80;;
31760;SDS011;18335;51.486;7.562;2023-06-26T00:53:49;16.67;;;6.55;;
31760;SDS011;18335;51.486;7.562;2023-06-26T00:56:17;11.48;;;6.40;;
31760;SDS011;18335;51.486;7.562;2023-06-26T00:58:45;9.88;;;5.70;;
31760;SDS011;18335;51.486;7.562;2023-06-26T01:01:11;11.77;;;6.47;;
31760;SDS011;18335;51.486;7.562;2023-06-26T01:03:42;11.65;;;6.40;;
31760;SDS011;18335;51.486;7.562;2023-06-26T01:06:12;10.07;;;5.65;;
31760;SDS011;18335;51.486;7.562;2023-06-26T01:08:41;11.93;;;6.25;;
31760;SDS011;18335;51.486;7.562;2023-06-26T01:11:09;13.43;;;6.40;;
31760;SDS011;18335;51.486;7.562;2023-06-26T01:13:36;9.18;;;5.55;;
31760;SDS011;18335;51.486;7.562;2023-06-26T01:16:04;9.85;;;6.07;;
31760;SDS011;18335;51.486;7.562;2023-06-26T01:18:32;10.65;;;6.28;;
31760;SDS011;18335;51.486;7.562;2023-06-26T01:21:00;8.88;;;5.45;;
31760;SDS011;18335;51.486;7.562;2023-06-26T01:23:34;11.20;;;5.90;;
31760;SDS011;18335;51.486;7.562;2023-06-26T01:26:14;10.75;;;6.47;;
31760;SDS011;18335;51.486;7.562;2023-06-26T01:28:43;9.43;;;5.38;;
31760;SDS011;18335;51.486;7.562;2023-06-26T01:31:11;10.48;;;5.88;;
31760;SDS011;18335;51.486;7.562;2023-06-26T01:33:39;13.57;;;6.13;;
31760;SDS011;18335;51.486;7.562;2023-06-26T01:36:07;11.85;;;6.47;;
31760;SDS011;18335;51.486;7.562;2023-06-26T01:38:34;10.23;;;6.25;;
31760;SDS011;18335;51.486;7.562;2023-06-26T01:41:01;9.70;;;5.95;;
31760;SDS011;18335;51.486;7.562;2023-06-26T01:43:31;11.25;;;6.90;;
31760;SDS011;18335;51.486;7.562;2023-06-26T01:46:09;12.57;;;5.80;;
31760;SDS011;18335;51.486;7.562;2023-06-26T01:48:43;10.32;;;5.88;;
31760;SDS011;18335;51.486;7.562;2023-06-26T01:51:16;9.65;;;5.65;;
31760;SDS011;18335;51.486;7.562;2023-06-26T01:53:48;9.90;;;5.43;;
31760;SDS011;18335;51.486;7.562;2023-06-26T01:56:20;10.40;;;5.80;;
31760;SDS011;18335;51.486;7.562;2023-06-26T01:58:52;12.73;;;6.25;;
31760;SDS011;18335;51.486;7.562;2023-06-26T02:01:21;9.30;;;6.00;;
31760;SDS011;18335;51.486;7.562;2023-06-26T02:03:48;12.15;;;6.05;;
31760;SDS011;18335;51.486;7.562;2023-06-26T02:06:15;9.55;;;5.82;;
31760;SDS011;18335;51.486;7.562;2023-06-26T02:08:41;11.57;;;6.00;;
31760;SDS011;18335;51.486;7.562;2023-06-26T02:11:08;10.65;;;6.20;;
31760;SDS011;18335;51.486;7.562;2023-06-26T02:13:35;11.95;;;6.05;;
31760;SDS011;18335;51.486;7.562;2023-06-26T02:16:03;11.13;;;5.97;;
31760;SDS011;18335;51.486;7.562;2023-06-26T02:18:30;9.70;;;5.35;;
31760;SDS011;18335;51.486;7.562;2023-06-26T02:20:57;11.27;;;6.18;;
31760;SDS011;18335;51.486;7.562;2023-06-26T02:23:24;8.63;;;5.28;;
31760;SDS011;18335;51.486;7.562;2023-06-26T02:25:51;12.02;;;5.82;;
31760;SDS011;18335;51.486;7.562;2023-06-26T02:28:18;11.25;;;5.68;;
31760;SDS011;18335;51.486;7.562;2023-06-26T02:30:45;10.75;;;6.07;;
31760;SDS011;18335;51.486;7.562;2023-06-26T02:33:13;9.77;;;5.57;;
31760;SDS011;18335;51.486;7.562;2023-06-26T02:35:40;10.35;;;6.05;;
31760;SDS011;18335;51.486;7.562;2023-06-26T02:38:09;10.40;;;5.80;;
31760;SDS011;18335;51.486;7.562;2023-06-26T02:40:38;8.77;;;5.25;;
31760;SDS011;18335;51.486;7.562;2023-06-26T02:43:06;9.90;;;6.07;;
31760;SDS011;18335;51.486;7.562;2023-06-26T02:45:33;10.60;;;6.00;;
31760;SDS011;18335;51.486;7.562;2023-06-26T02:48:00;10.88;;;6.07;;
31760;SDS011;18335;51.486;7.562;2023-06-26T02:50:29;10.80;;;5.78;;
31760;SDS011;18335;51.486;7.562;2023-06-26T02:53:05;10.90;;;6.00;;
31760;SDS011;18335;51.486;7.562;2023-06-26T02:55:33;10.60;;;5.75;;
31760;SDS011;18335;51.486;7.562;2023-06-26T02:58:00;12.15;;;6.47;;
31760;SDS011;18335;51.486;7.562;2023-06-26T03:00:27;9.68;;;5.65;;
31760;SDS011;18335;51.486;7.562;2023-06-26T03:02:55;10.32;;;6.20;;
31760;SDS011;18335;51.486;7.562;2023-06-26T03:05:22;11.57;;;6.00;;
31760;SDS011;18335;51.486;7.562;2023-06-26T03:07:51;10.98;;;6.07;;
31760;SDS011;18335;51.486;7.562;2023-06-26T03:10:18;12.02;;;5.95;;
31760;SDS011;18335;51.486;7.562;2023-06-26T03:12:45;11.20;;;5.82;;
31760;SDS011;18335;51.486;7.562;2023-06-26T03:15:12;9.77;;;5.55;;
31760;SDS011;18335;51.486;7.562;2023-06-26T03:17:39;10.05;;;6.28;;
31760;SDS011;18335;51.486;7.562;2023-06-26T03:20:09;11.50;;;5.63;;
31760;SDS011;18335;51.486;7.562;2023-06-26T03:22:48;10.77;;;6.53;;
31760;SDS011;18335;51.486;7.562;2023-06-26T03:25:19;11.93;;;5.93;;
31760;SDS011;18335;51.486;7.562;2023-06-26T03:27:46;9.52;;;5.88;;
31760;SDS011;18335;51.486;7.562;2023-06-26T03:30:15;14.38;;;6.30;;
31760;SDS011;18335;51.486;7.562;2023-06-26T03:32:44;10.73;;;6.18;;
31760;SDS011;18335;51.486;7.562;2023-06-26T03:35:11;11.75;;;6.38;;
31760;SDS011;18335;51.486;7.562;2023-06-26T03:37:38;12.25;;;5.53;;
31760;SDS011;18335;51.486;7.562;2023-06-26T03:40:07;11.38;;;6.07;;
31760;SDS011;18335;51.486;7.562;2023-06-26T03:42:36;9.38;;;5.53;;
31760;SDS011;18335;51.486;7.562;2023-06-26T03:45:03;13.23;;;5.65;;
31760;SDS011;18335;51.486;7.562;2023-06-26T03:47:32;11.15;;;6.28;;
31760;SDS011;18335;51.486;7.562;2023-06-26T03:49:59;9.82;;;6.20;;
31760;SDS011;18335;51.486;7.562;2023-06-26T03:52:26;10.60;;;6.57;;
31760;SDS011;18335;51.486;7.562;2023-06-26T03:54:56;13.02;;;6.18;;
31760;SDS011;18335;51.486;7.562;2023-06-26T03:57:23;9.63;;;6.40;;
31760;SDS011;18335;51.486;7.562;2023-06-26T03:59:53;9.77;;;6.18;;
31760;SDS011;18335;51.486;7.562;2023-06-26T04:02:20;9.63;;;5.85;;
31760;SDS011;18335;51.486;7.562;2023-06-26T04:04:48;12.40;;;7.10;;
31760;SDS011;18335;51.486;7.562;2023-06-26T04:07:15;9.98;;;5.97;;
31760;SDS011;18335;51.486;7.562;2023-06-26T04:09:42;11.25;;;5.90;;
31760;SDS011;18335;51.486;7.562;2023-06-26T04:12:08;9.73;;;5.40;;
31760;SDS011;18335;51.486;7.562;2023-06-26T04:14:36;10.68;;;6.00;;
31760;SDS011;18335;51.486;7.562;2023-06-26T04:17:04;11.52;;;6.82;;
31760;SDS011;18335;51.486;7.562;2023-06-26T04:19:31;11.38;;;6.38;;
31760;SDS011;18335;51.486;7.562;2023-06-26T04:21:59;10.02;;;6.47;;
31760;SDS011;18335;51.486;7.562;2023-06-26T04:24:26;10.93;;;6.72;;
31760;SDS011;18335;51.486;7.562;2023-06-26T04:26:52;11.57;;;6.43;;
31760;SDS011;18335;51.486;7.562;2023-06-26T04:29:22;10.60;;;6.03;;
31760;SDS011;18335;51.486;7.562;2023-06-26T04:31:50;12.07;;;6.03;;
31760;SDS011;18335;51.486;7.562;2023-06-26T04:34:18;11.30;;;6.40;;
31760;SDS011;18335;51.486;7.562;2023-06-26T04:36:45;12.43;;;6.22;;
31760;SDS011;18335;51.486;7.562;2023-06-26T04:39:13;12.40;;;6.75;;
31760;SDS011;18335;51.486;7.562;2023-06-26T04:41:40;13.73;;;7.00;;
31760;SDS011;18335;51.486;7.562;2023-06-26T04:44:08;13.50;;;6.60;;
31760;SDS011;18335;51.486;7.562;2023-06-26T04:46:34;12.48;;;6.43;;
31760;SDS011;18335;51.486;7.562;2023-06-26T04:49:01;9.65;;;5.88;;
31760;SDS011;18335;51.486;7.562;2023-06-26T04:51:30;10.07;;;5.63;;
31760;SDS011;18335;51.486;7.562;2023-06-26T04:53:56;11.02;;;6.32;;
31760;SDS011;18335;51.486;7.562;2023-06-26T04:56:23;13.95;;;6.63;;
31760;SDS011;18335;51.486;7.562;2023-06-26T04:58:50;10.75;;;6.30;;
31760;SDS011;18335;51.486;7.562;2023-06-26T05:01:17;13.65;;;6.90;;
31760;SDS011;18335;51.486;7.562;2023-06-26T05:03:43;12.93;;;6.32;;
31760;SDS011;18335;51.486;7.562;2023-06-26T05:06:10;13.45;;;7.22;;
31760;SDS011;18335;51.486;7.562;2023-06-26T05:08:38;12.40;;;6.45;;
31760;SDS011;18335;51.486;7.562;2023-06-26T05:11:05;10.95;;;6.15;;
31760;SDS011;18335;51.486;7.562;2023-06-26T05:13:32;11.88;;;6.40;;
31760;SDS011;18335;51.486;7.562;2023-06-26T05:15:59;11.85;;;5.85;;
31760;SDS011;18335;51.486;7.562;2023-06-26T05:18:26;12.10;;;6.65;;
31760;SDS011;18335;51.486;7.562;2023-06-26T05:20:53;17.88;;;5.80;;
31760;SDS011;18335;51.486;7.562;2023-06-26T05:23:20;11.70;;;6.30;;
31760;SDS011;18335;51.486;7.562;2023-06-26T05:25:50;13.43;;;6.05;;
31760;SDS011;18335;51.486;7.562;2023-06-26T05:28:17;11.77;;;6.05;;
31760;SDS011;18335;51.486;7.562;2023-06-26T05:30:45;12.57;;;6.55;;
31760;SDS011;18335;51.486;7.562;2023-06-26T05:33:13;9.80;;;5.68;;
31760;SDS011;18335;51.486;7.562;2023-06-26T05:35:44;10.00;;;5.97;;
31760;SDS011;18335;51.486;7.562;2023-06-26T05:38:13;11.32;;;6.45;;
31760;SDS011;18335;51.486;7.562;2023-06-26T05:40:41;12.93;;;7.55;;
31760;SDS011;18335;51.486;7.562;2023-06-26T05:43:09;13.30;;;7.68;;
31760;SDS011;18335;51.486;7.562;2023-06-26T05:45:37;15.20;;;7.13;;
31760;SDS011;18335;51.486;7.562;2023-06-26T05:48:04;16.40;;;7.32;;
31760;SDS011;18335;51.486;7.562;2023-06-26T05:50:31;15.52;;;7.38;;
31760;SDS011;18335;51.486;7.562;2023-06-26T05:52:59;11.43;;;6.93;;
31760;SDS011;18335;51.486;7.562;2023-06-26T05:55:28;12.63;;;7.30;;
31760;SDS011;18335;51.486;7.562;2023-06-26T05:57:55;16.33;;;7.68;;
31760;SDS011;18335;51.486;7.562;2023-06-26T06:00:26;12.63;;;6.10;;
31760;SDS011;18335;51.486;7.562;2023-06-26T06:02:54;13.07;;;7.32;;
31760;SDS011;18335;51.486;7.562;2023-06-26T06:05:21;14.82;;;7.28;;
31760;SDS011;18335;51.486;7.562;2023-06-26T06:07:47;14.88;;;7.88;;
31760;SDS011;18335;51.486;7.562;2023-06-26T06:10:15;17.27;;;8.05;;
31760;SDS011;18335;51.486;7.562;2023-06-26T06:12:41;15.40;;;7.18;;
31760;SDS011;18335;51.486;7.562;2023-06-26T06:15:08;14.52;;;7.93;;
31760;SDS011;18335;51.486;7.562;2023-06-26T06:17:36;14.93;;;7.88;;
31760;SDS011;18335;51.486;7.562;2023-06-26T06:20:03;14.48;;;8.00;;
31760;SDS011;18335;51.486;7.562;2023-06-26T06:22:31;12.73;;;6.85;;
31760;SDS011;18335;51.486;7.562;2023-06-26T06:24:58;12.82;;;8.57;;
31760;SDS011;18335;51.486;7.562;2023-06-26T06:27:25;14.98;;;9.13;;
31760;SDS011;18335;51.486;7.562;2023-06-26T06:29:52;14.90;;;8.02;;
31760;SDS011;18335;51.486;7.562;2023-06-26T06:32:19;14.15;;;7.50;;
31760;SDS011;18335;51.486;7.562;2023-06-26T06:34:47;14.02;;;8.82;;
31760;SDS011;18335;51.486;7.562;2023-06-26T06:37:14;16.65;;;8.32;;
31760;SDS011;18335;51.486;7.562;2023-06-26T06:39:41;13.95;;;8.10;;
31760;SDS011;18335;51.486;7.562;2023-06-26T06:42:08;15.70;;;8.13;;
31760;SDS011;18335;51.486;7.562;2023-06-26T06:44:35;16.08;;;7.63;;
31760;SDS011;18335;51.486;7.562;2023-06-26T06:47:01;17.48;;;7.40;;
31760;SDS011;18335;51.486;7.562;2023-06-26T06:49:28;12.88;;;7.07;;
31760;SDS011;18335;51.486;7.562;2023-06-26T06:51:56;15.85;;;7.80;;
31760;SDS011;18335;51.486;7.562;2023-06-26T06:54:25;12.32;;;6.97;;
31760;SDS011;18335;51.486;7.562;2023-06-26T06:56:53;15.27;;;7.18;;
31760;SDS011;18335;51.486;7.562;2023-06-26T06:59:20;14.77;;;6.93;;
31760;SDS011;18335;51.486;7.562;2023-06-26T07:01:46;18.38;;;7.57;;
31760;SDS011;18335;51.486;7.562;2023-06-26T07:04:13;11.82;;;7.15;;
31760;SDS011;18335;51.486;7.562;2023-06-26T07:06:40;14.35;;;7.45;;
31760;SDS011;18335;51.486;7.562;2023-06-26T07:09:08;13.27;;;6.32;;
31760;SDS011;18335;51.486;7.562;2023-06-26T07:11:35;14.20;;;6.32;;
31760;SDS011;18335;51.486;7.562;2023-06-26T07:14:01;13.70;;;6.72;;
31760;SDS011;18335;51.486;7.562;2023-06-26T07:16:28;15.07;;;6.35;;
31760;SDS011;18335;51.486;7.562;2023-06-26T07:18:55;14.48;;;6.70;;
31760;SDS011;18335;51.486;7.562;2023-06-26T07:21:22;15.40;;;5.72;;
31760;SDS011;18335;51.486;7.562;2023-06-26T07:23:49;12.68;;;6.32;;
31760;SDS011;18335;51.486;7.562;2023-06-26T07:26:17;11.35;;;6.18;;
31760;SDS011;18335;51.486;7.562;2023-06-26T07:28:44;13.77;;;6.72;;
31760;SDS011;18335;51.486;7.562;2023-06-26T07:31:11;13.82;;;6.70;;
31760;SDS011;18335;51.486;7.562;2023-06-26T07:33:37;15.30;;;6.72;;
31760;SDS011;18335;51.486;7.562;2023-06-26T07:36:04;12.63;;;6.18;;
31760;SDS011;18335;51.486;7.562;2023-06-26T07:38:31;13.23;;;7.70;;
31760;SDS011;18335;51.486;7.562;2023-06-26T07:40:58;18.92;;;6.57;;
31760;SDS011;18335;51.486;7.562;2023-06-26T07:43:26;14.43;;;6.72;;
31760;SDS011;18335;51.486;7.562;2023-06-26T07:45:53;12.05;;;6.40;;
31760;SDS011;18335;51.486;7.562;2023-06-26T07:48:20;12.88;;;6.20;;
31760;SDS011;18335;51.486;7.562;2023-06-26T07:50:46;19.75;;;6.13;;
31760;SDS011;18335;51.486;7.562;2023-06-26T07:53:13;15.00;;;6.53;;
31760;SDS011;18335;51.486;7.562;2023-06-26T07:55:40;15.55;;;7.25;;
31760;SDS011;18335;51.486;7.562;2023-06-26T07:58:07;15.10;;;7.28;;
31760;SDS011;18335;51.486;7.562;2023-06-26T08:00:35;17.90;;;7.28;;
31760;SDS011;18335;51.486;7.562;2023-06-26T08:03:02;12.85;;;7.13;;
31760;SDS011;18335;51.486;7.562;2023-06-26T08:05:28;16.85;;;6.53;;
31760;SDS011;18335;51.486;7.562;2023-06-26T08:07:55;16.95;;;7.97;;
31760;SDS011;18335;51.486;7.562;2023-06-26T08:10:22;14.15;;;7.35;;
31760;SDS011;18335;51.486;7.562;2023-06-26T08:12:49;13.93;;;6.68;;
31760;SDS011;18335;51.486;7.562;2023-06-26T08:15:17;15.90;;;7.13;;
31760;SDS011;18335;51.486;7.562;2023-06-26T08:17:45;17.63;;;7.65;;
31760;SDS011;18335;51.486;7.562;2023-06-26T08:20:12;16.42;;;8.10;;
31760;SDS011;18335;51.486;7.562;2023-06-26T08:22:39;17.60;;;8.15;;
31760;SDS011;18335;51.486;7.562;2023-06-26T08:25:06;15.80;;;8.60;;
31760;SDS011;18335;51.486;7.562;2023-06-26T08:27:33;17.33;;;7.38;;
31760;SDS011;18335;51.486;7.562;2023-06-26T08:30:00;16.75;;;7.10;;
31760;SDS011;18335;51.486;7.562;2023-06-26T08:32:27;16.48;;;8.10;;
31760;SDS011;18335;51.486;7.562;2023-06-26T08:34:55;13.57;;;8.07;;
31760;SDS011;18335;51.486;7.562;2023-06-26T08:37:22;18.40;;;8.45;;
31760;SDS011;18335;51.486;7.562;2023-06-26T08:39:48;16.33;;;8.57;;
31760;SDS011;18335;51.486;7.562;2023-06-26T08:42:15;13.57;;;7.30;;
31760;SDS011;18335;51.486;7.562;2023-06-26T08:44:42;16.67;;;7.90;;
31760;SDS011;18335;51.486;7.562;2023-06-26T08:47:09;14.18;;;7.78;;
31760;SDS011;18335;51.486;7.562;2023-06-26T08:49:42;16.95;;;9.23;;
31760;SDS011;18335;51.486;7.562;2023-06-26T08:52:16;17.95;;;9.23;;
31760;SDS011;18335;51.486;7.562;2023-06-26T08:54:46;14.13;;;7.70;;
31760;SDS011;18335;51.486;7.562;2023-06-26T08:57:18;17.92;;;8.63;;
31760;SDS011;18335;51.486;7.562;2023-06-26T08:59:46;17.77;;;7.93;;
31760;SDS011;18335;51.486;7.562;2023-06-26T09:02:14;16.92;;;8.27;;
31760;SDS011;18335;51.486;7.562;2023-06-26T09:04:41;18.30;;;8.43;;
31760;SDS011;18335;51.486;7.562;2023-06-26T09:07:08;17.45;;;8.32;;
31760;SDS011;18335;51.486;7.562;2023-06-26T09:09:36;16.85;;;8.50;;
31760;SDS011;18335;51.486;7.562;2023-06-26T09:12:03;20.98;;;9.60;;
31760;SDS011;18335;51.486;7.562;2023-06-26T09:14:30;17.83;;;9.73;;
31760;SDS011;18335;51.486;7.562;2023-06-26T09:16:57;16.85;;;10.35;;
31760;SDS011;18335;51.486;7.562;2023-06-26T09:19:24;21.85;;;12.40;;
31760;SDS011;18335;51.486;7.562;2023-06-26T09:21:50;18.35;;;10.90;;
31760;SDS011;18335;51.486;7.562;2023-06-26T09:24:17;20.15;;;11.30;;
31760;SDS011;18335;51.486;7.562;2023-06-26T09:26:45;20.90;;;11.20;;
31760;SDS011;18335;51.486;7.562;2023-06-26T09:29:13;23.73;;;13.05;;
31760;SDS011;18335;51.486;7.562;2023-06-26T09:31:41;17.80;;;12.10;;
31760;SDS011;18335;51.486;7.562;2023-06-26T09:34:08;19.50;;;14.25;;
31760;SDS011;18335;51.486;7.562;2023-06-26T09:36:35;22.58;;;14.05;;
31760;SDS011;18335;51.486;7.562;2023-06-26T09:39:03;23.15;;;15.02;;
31760;SDS011;18335;51.486;7.562;2023-06-26T09:41:35;18.15;;;13.27;;
31760;SDS011;18335;51.486;7.562;2023-06-26T09:44:05;18.23;;;12.88;;
31760;SDS011;18335;51.486;7.562;2023-06-26T09:46:33;19.80;;;13.35;;
31760;SDS011;18335;51.486;7.562;2023-06-26T09:49:03;20.55;;;13.68;;
31760;SDS011;18335;51.486;7.562;2023-06-26T09:51:31;18.23;;;11.85;;
31760;SDS011;18335;51.486;7.562;2023-06-26T09:53:58;20.33;;;12.27;;
31760;SDS011;18335;51.486;7.562;2023-06-26T09:56:25;17.92;;;11.75;;
31760;SDS011;18335;51.486;7.562;2023-06-26T09:58:53;20.50;;;13.23;;
31760;SDS011;18335;51.486;7.562;2023-06-26T10:01:23;23.13;;;12.20;;
31760;SDS011;18335;51.486;7.562;2023-06-26T10:03:50;16.98;;;9.82;;
31760;SDS011;18335;51.486;7.562;2023-06-26T10:06:18;14.82;;;8.85;;
31760;SDS011;18335;51.486;7.562;2023-06-26T10:08:59;17.63;;;8.80;;
31760;SDS011;18335;51.486;7.562;2023-06-26T10:11:29;19.55;;;8.90;;
31760;SDS011;18335;51.486;7.562;2023-06-26T10:14:01;18.42;;;8.73;;
31760;SDS011;18335;51.486;7.562;2023-06-26T10:16:32;18.10;;;9.10;;
31760;SDS011;18335;51.486;7.562;2023-06-26T10:19:02;17.42;;;9.93;;
31760;SDS011;18335;51.486;7.562;2023-06-26T10:21:32;15.82;;;7.00;;
31760;SDS011;18335;51.486;7.562;2023-06-26T10:24:01;15.13;;;6.30;;
31760;SDS011;18335;51.486;7.562;2023-06-26T10:26:30;14.57;;;5.25;;
31760;SDS011;18335;51.486;7.562;2023-06-26T10:28:59;15.25;;;6.03;;
31760;SDS011;18335;51.486;7.562;2023-06-26T10:31:26;14.35;;;6.03;;
31760;SDS011;18335;51.486;7.562;2023-06-26T10:33:57;16.40;;;5.68;;
31760;SDS011;18335;51.486;7.562;2023-06-26T10:36:27;9.70;;;4.78;;
31760;SDS011;18335;51.486;7.562;2023-06-26T10:38:56;15.50;;;6.40;;
31760;SDS011;18335;51.486;7.562;2023-06-26T10:41:24;13.48;;;5.97;;
31760;SDS011;18335;51.486;7.562;2023-06-26T10:43:52;18.20;;;4.97;;
31760;SDS011;18335;51.486;7.562;2023-06-26T10:46:33;18.90;;;6.70;;
31760;SDS011;18335;51.486;7.562;2023-06-26T10:49:01;14.15;;;6.18;;
31760;SDS011;18335;51.486;7.562;2023-06-26T10:51:28;16.08;;;6.63;;
31760;SDS011;18335;51.486;7.562;2023-06-26T10:53:55;13.45;;;5.13;;
31760;SDS011;18335;51.486;7.562;2023-06-26T10:59:15;11.60;;;5.70;;
31760;SDS011;18335;51.486;7.562;2023-06-26T11:01:44;12.73;;;5.57;;
31760;SDS011;18335;51.486;7.562;2023-06-26T11:04:14;12.85;;;6.05;;
31760;SDS011;18335;51.486;7.562;2023-06-26T11:06:43;11.30;;;6.05;;
31760;SDS011;18335;51.486;7.562;2023-06-26T11:09:13;12.07;;;5.55;;
31760;SDS011;18335;51.486;7.562;2023-06-26T11:12:00;15.63;;;5.13;;
31760;SDS011;18335;51.486;7.562;2023-06-26T11:14:32;11.48;;;5.07;;
31760;SDS011;18335;51.486;7.562;2023-06-26T11:17:01;12.10;;;4.05;;
31760;SDS011;18335;51.486;7.562;2023-06-26T11:19:30;13.57;;;5.35;;
31760;SDS011;18335;51.486;7.562;2023-06-26T11:22:03;10.77;;;3.63;;
31760;SDS011;18335;51.486;7.562;2023-06-26T11:24:31;11.70;;;3.72;;
31760;SDS011;18335;51.486;7.562;2023-06-26T11:27:02;10.63;;;3.15;;
31760;SDS011;18335;51.486;7.562;2023-06-26T11:29:31;13.32;;;4.00;;
31760;SDS011;18335;51.486;7.562;2023-06-26T11:31:59;9.15;;;3.20;;
31760;SDS011;18335;51.486;7.562;2023-06-26T11:34:30;8.45;;;3.38;;
31760;SDS011;18335;51.486;7.562;2023-06-26T11:36:57;7.78;;;3.42;;
31760;SDS011;18335;51.486;7.562;2023-06-26T11:39:26;10.73;;;4.18;;
31760;SDS011;18335;51.486;7.562;2023-06-26T11:41:53;12.80;;;3.85;;
31760;SDS011;18335;51.486;7.562;2023-06-26T11:44:20;6.90;;;3.00;;
31760;SDS011;18335;51.486;7.562;2023-06-26T11:46:47;9.45;;;3.30;;
31760;SDS011;18335;51.486;7.562;2023-06-26T11:49:20;12.48;;;4.15;;
31760;SDS011;18335;51.486;7.562;2023-06-26T11:51:49;9.93;;;3.42;;
31760;SDS011;18335;51.486;7.562;2023-06-26T11:54:22;9.25;;;3.78;;
31760;SDS011;18335;51.486;7.562;2023-06-26T11:56:53;12.68;;;3.97;;
31760;SDS011;18335;51.486;7.562;2023-06-26T11:59:23;11.32;;;3.70;;
31760;SDS011;18335;51.486;7.562;2023-06-26T12:01:50;8.35;;;3.67;;
31760;SDS011;18335;51.486;7.562;2023-06-26T12:04:18;12.55;;;4.07;;
31760;SDS011;18335;51.486;7.562;2023-06-26T12:06:46;10.02;;;3.95;;
31760;SDS011;18335;51.486;7.562;2023-06-26T12:09:16;7.75;;;3.55;;
31760;SDS011;18335;51.486;7.562;2023-06-26T12:11:45;9.70;;;3.97;;
31760;SDS011;18335;51.486;7.562;2023-06-26T12:14:14;11.00;;;3.25;;
31760;SDS011;18335;51.486;7.562;2023-06-26T12:16:43;8.38;;;3.10;;
31760;SDS011;18335;51.486;7.562;2023-06-26T12:19:10;10.60;;;3.03;;
31760;SDS011;18335;51.486;7.562;2023-06-26T12:21:49;7.53;;;2.85;;
31760;SDS011;18335;51.486;7.562;2023-06-26T12:24:19;7.65;;;2.60;;
31760;SDS011;18335;51.486;7.562;2023-06-26T12:26:48;10.30;;;3.03;;
31760;SDS011;18335;51.486;7.562;2023-06-26T12:29:19;6.93;;;2.92;;
31760;SDS011;18335;51.486;7.562;2023-06-26T12:31:48;6.65;;;2.55;;
31760;SDS011;18335;51.486;7.562;2023-06-26T12:34:19;9.68;;;2.85;;
31760;SDS011;18335;51.486;7.562;2023-06-26T12:36:47;9.23;;;2.83;;
31760;SDS011;18335;51.486;7.562;2023-06-26T12:39:15;4.35;;;2.03;;
31760;SDS011;18335;51.486;7.562;2023-06-26T12:41:46;7.85;;;2.35;;
31760;SDS011;18335;51.486;7.562;2023-06-26T12:44:20;9.35;;;2.95;;
31760;SDS011;18335;51.486;7.562;2023-06-26T12:46:48;5.10;;;2.13;;
31760;SDS011;18335;51.486;7.562;2023-06-26T12:49:15;7.70;;;1.85;;
31760;SDS011;18335;51.486;7.562;2023-06-26T12:51:43;6.35;;;2.17;;
31760;SDS011;18335;51.486;7.562;2023-06-26T12:54:10;8.80;;;2.63;;
31760;SDS011;18335;51.486;7.562;2023-06-26T12:56:36;7.13;;;2.15;;
31760;SDS011;18335;51.486;7.562;2023-06-26T12:59:05;6.90;;;2.53;;
31760;SDS011;18335;51.486;7.562;2023-06-26T13:01:31;6.03;;;2.53;;
31760;SDS011;18335;51.486;7.562;2023-06-26T13:03:59;7.85;;;2.88;;
31760;SDS011;18335;51.486;7.562;2023-06-26T13:06:26;8.13;;;2.08;;
31760;SDS011;18335;51.486;7.562;2023-06-26T13:08:53;7.05;;;1.75;;
31760;SDS011;18335;51.486;7.562;2023-06-26T13:11:19;5.13;;;1.98;;
31760;SDS011;18335;51.486;7.562;2023-06-26T13:13:46;6.40;;;2.17;;
31760;SDS011;18335;51.486;7.562;2023-06-26T13:16:15;4.90;;;2.13;;
31760;SDS011;18335;51.486;7.562;2023-06-26T13:18:44;10.57;;;2.25;;
31760;SDS011;18335;51.486;7.562;2023-06-26T13:21:11;7.47;;;1.70;;
31760;SDS011;18335;51.486;7.562;2023-06-26T13:23:37;6.72;;;1.58;;
31760;SDS011;18335;51.486;7.562;2023-06-26T13:26:04;3.83;;;1.30;;
31760;SDS011;18335;51.486;7.562;2023-06-26T13:28:31;4.95;;;1.35;;
31760;SDS011;18335;51.486;7.562;2023-06-26T13:30:58;5.47;;;1.38;;
31760;SDS011;18335;51.486;7.562;2023-06-26T13:33:26;4.45;;;1.80;;
31760;SDS011;18335;51.486;7.562;2023-06-26T13:35:53;5.20;;;1.30;;
31760;SDS011;18335;51.486;7.562;2023-06-26T13:38:20;5.10;;;1.23;;
31760;SDS011;18335;51.486;7.562;2023-06-26T13:40:49;4.55;;;1.73;;
31760;SDS011;18335;51.486;7.562;2023-06-26T13:43:16;3.15;;;1.13;;
31760;SDS011;18335;51.486;7.562;2023-06-26T13:45:43;8.27;;;1.80;;
31760;SDS011;18335;51.486;7.562;2023-06-26T13:48:10;6.93;;;1.42;;
31760;SDS011;18335;51.486;7.562;2023-06-26T13:50:38;7.47;;;1.73;;
31760;SDS011;18335;51.486;7.562;2023-06-26T13:53:05;6.53;;;1.40;;
31760;SDS011;18335;51.486;7.562;2023-06-26T13:55:32;5.50;;;1.90;;
31760;SDS011;18335;51.486;7.562;2023-06-26T13:57:59;8.57;;;1.55;;
31760;SDS011;18335;51.486;7.562;2023-06-26T14:00:26;8.07;;;1.42;;
31760;SDS011;18335;51.486;7.562;2023-06-26T14:02:53;6.15;;;1.30;;
31760;SDS011;18335;51.486;7.562;2023-06-26T14:05:21;2.83;;;1.00;;
31760;SDS011;18335;51.486;7.562;2023-06-26T14:07:49;7.80;;;1.70;;
31760;SDS011;18335;51.486;7.562;2023-06-26T14:10:16;5.32;;;1.40;;
31760;SDS011;18335;51.486;7.562;2023-06-26T14:12:43;4.43;;;1.55;;
31760;SDS011;18335;51.486;7.562;2023-06-26T14:15:10;7.45;;;1.52;;
31760;SDS011;18335;51.486;7.562;2023-06-26T14:17:36;4.93;;;1.50;;
31760;SDS011;18335;51.486;7.562;2023-06-26T14:20:05;3.90;;;1.50;;
31760;SDS011;18335;51.486;7.562;2023-06-26T14:22:35;3.55;;;1.38;;
31760;SDS011;18335;51.486;7.562;2023-06-26T14:25:03;3.58;;;1.30;;
31760;SDS011;18335;51.486;7.562;2023-06-26T14:27:31;7.97;;;1.35;;
31760;SDS011;18335;51.486;7.562;2023-06-26T14:29:58;3.70;;;1.30;;
31760;SDS011;18335;51.486;7.562;2023-06-26T14:32:24;6.57;;;1.70;;
31760;SDS011;18335;51.486;7.562;2023-06-26T14:34:51;4.32;;;1.40;;
31760;SDS011;18335;51.486;7.562;2023-06-26T14:37:18;6.55;;;1.15;;
31760;SDS011;18335;51.486;7.562;2023-06-26T14:39:44;3.88;;;1.50;;
31760;SDS011;18335;51.486;7.562;2023-06-26T14:42:13;4.28;;;1.27;;
31760;SDS011;18335;51.486;7.562;2023-06-26T14:44:39;2.25;;;1.30;;
31760;SDS011;18335;51.486;7.562;2023-06-26T14:47:06;8.60;;;1.75;;